createdAt,value
2022-08-03T00:02:17.879Z,100.00
2022-08-03T00:04:46.222Z,100.00
2022-08-03T00:07:13.880Z,100.00
2022-08-03T00:09:43.203Z,100.00
2022-08-03T00:12:11.015Z,100.00
2022-08-03T00:14:38.670Z,100.00
2022-08-03T00:17:06.338Z,100.00
2022-08-03T00:19:34.006Z,100.00
2022-08-03T00:22:01.653Z,100.00
2022-08-03T00:24:31.123Z,100.00
2022-08-03T00:27:00.167Z,100.00
2022-08-03T00:29:28.117Z,100.00
2022-08-03T00:31:59.415Z,100.00
2022-08-03T00:34:36.702Z,100.00
2022-08-03T00:37:16.309Z,100.00
2022-08-03T00:39:45.913Z,100.00
2022-08-03T00:42:15.347Z,100.00
2022-08-03T00:44:44.132Z,100.00
2022-08-03T00:47:12.906Z,100.00
2022-08-03T00:49:41.883Z,100.00
2022-08-03T00:52:10.419Z,100.00
2022-08-03T00:54:38.729Z,100.00
2022-08-03T00:57:06.878Z,100.00
2022-08-03T00:59:38.121Z,100.00
2022-08-03T01:02:05.835Z,100.00
2022-08-03T01:04:33.779Z,100.00
2022-08-03T01:07:10.845Z,100.00
2022-08-03T01:09:42.809Z,100.00
2022-08-03T01:12:16.201Z,100.00
2022-08-03T01:14:47.869Z,100.00
2022-08-03T01:17:19.500Z,100.00
2022-08-03T01:19:51.449Z,100.00
2022-08-03T01:22:50.166Z,100.00
2022-08-03T01:25:30.127Z,100.00
2022-08-03T01:28:04.638Z,100.00
2022-08-03T01:30:34.985Z,100.00
2022-08-03T01:33:06.561Z,100.00
2022-08-03T01:35:38.546Z,100.00
2022-08-03T01:38:08.728Z,100.00
2022-08-03T01:40:37.831Z,100.00
2022-08-03T01:43:06.442Z,100.00
2022-08-03T01:45:35.786Z,100.00
2022-08-03T01:48:04.356Z,100.00
2022-08-03T01:50:34.314Z,100.00
2022-08-03T01:53:03.505Z,100.00
2022-08-03T01:55:33.269Z,100.00
2022-08-03T01:58:05.535Z,100.00
2022-08-03T02:00:37.325Z,100.00
2022-08-03T02:03:07.282Z,100.00
2022-08-03T02:05:35.437Z,100.00
2022-08-03T02:08:05.403Z,100.00
2022-08-03T02:10:35.631Z,100.00
2022-08-03T02:13:05.638Z,100.00
2022-08-03T02:15:35.693Z,100.00
2022-08-03T02:18:04.459Z,100.00
2022-08-03T02:20:36.287Z,100.00
2022-08-03T02:23:04.012Z,100.00
2022-08-03T02:25:31.848Z,100.00
2022-08-03T02:28:08.347Z,100.00
2022-08-03T02:30:39.202Z,100.00
2022-08-03T02:33:09.973Z,100.00
2022-08-03T02:35:38.226Z,100.00
2022-08-03T02:38:09.212Z,100.00
2022-08-03T02:40:37.642Z,100.00
2022-08-03T02:43:09.676Z,100.00
2022-08-03T02:45:45.534Z,100.00
2022-08-03T02:48:13.948Z,100.00
2022-08-03T02:50:42.952Z,100.00
2022-08-03T02:53:11.379Z,100.00
2022-08-03T02:55:45.662Z,100.00
2022-08-03T02:58:14.727Z,100.00
2022-08-03T03:00:45.382Z,100.00
2022-08-03T03:03:13.742Z,100.00
2022-08-03T03:05:55.137Z,100.00
2022-08-03T03:08:28.630Z,100.00
2022-08-03T03:10:58.283Z,100.00
2022-08-03T03:13:26.505Z,100.00
2022-08-03T03:15:55.922Z,100.00
2022-08-03T03:18:25.254Z,100.00
2022-08-03T03:20:53.827Z,100.00
2022-08-03T03:23:22.979Z,100.00
2022-08-03T03:25:51.048Z,100.00
2022-08-03T03:28:19.212Z,100.00
2022-08-03T03:30:52.582Z,100.00
2022-08-03T03:33:22.467Z,100.00
2022-08-03T03:35:51.604Z,100.00
2022-08-03T03:38:19.888Z,100.00
2022-08-03T03:40:47.559Z,100.00
2022-08-03T03:43:15.661Z,100.00
2022-08-03T03:45:43.512Z,100.00
2022-08-03T03:48:11.736Z,100.00
2022-08-03T03:50:41.332Z,100.00
2022-08-03T03:53:11.234Z,100.00
2022-08-03T03:56:01.550Z,100.00
2022-08-03T03:58:27.097Z,100.00
2022-08-03T04:00:54.854Z,100.00
2022-08-03T04:03:22.623Z,100.00
2022-08-03T04:06:08.949Z,100.00
2022-08-03T04:08:54.262Z,100.00
2022-08-03T04:11:30.442Z,100.00
2022-08-03T04:14:05.739Z,100.00
2022-08-03T04:16:35.210Z,100.00
2022-08-03T04:19:05.348Z,100.00
2022-08-03T04:21:35.137Z,100.00
2022-08-03T04:24:05.112Z,100.00
2022-08-03T04:26:36.174Z,100.00
2022-08-03T04:29:04.820Z,100.00
2022-08-03T04:31:32.774Z,100.00
2022-08-03T04:34:00.664Z,100.00
2022-08-03T04:36:32.509Z,100.00
2022-08-03T04:39:06.487Z,100.00
2022-08-03T04:42:02.202Z,100.00
2022-08-03T04:44:28.525Z,100.00
2022-08-03T04:46:57.565Z,100.00
2022-08-03T04:49:25.377Z,100.00
2022-08-03T04:51:53.680Z,100.00
2022-08-03T04:54:22.936Z,100.00
2022-08-03T04:56:50.594Z,100.00
2022-08-03T04:59:18.863Z,100.00
2022-08-03T05:01:46.557Z,100.00
2022-08-03T05:04:14.946Z,100.00
2022-08-03T05:06:48.112Z,100.00
2022-08-03T05:09:39.557Z,100.00
2022-08-03T05:12:10.861Z,100.00
2022-08-03T05:14:39.523Z,100.00
2022-08-03T05:17:07.515Z,100.00
2022-08-03T05:19:35.261Z,100.00
2022-08-03T05:22:03.273Z,100.00
2022-08-03T05:24:32.483Z,100.00
2022-08-03T05:27:00.213Z,100.00
2022-08-03T05:29:27.883Z,100.00
2022-08-03T05:31:55.616Z,100.00
2022-08-03T05:34:23.369Z,100.00
2022-08-03T05:36:51.145Z,100.00
2022-08-03T05:39:19.071Z,100.00
2022-08-03T05:41:48.095Z,100.00
2022-08-03T05:44:15.899Z,100.00
2022-08-03T05:46:43.665Z,100.00
2022-08-03T05:49:11.595Z,100.00
2022-08-03T05:51:39.304Z,100.00
2022-08-03T05:54:07.100Z,100.00
2022-08-03T05:56:34.968Z,100.00
2022-08-03T05:59:22.714Z,100.00
2022-08-03T06:01:52.812Z,100.00
2022-08-03T06:04:20.616Z,100.00
2022-08-03T06:06:50.613Z,100.00
2022-08-03T06:09:18.596Z,100.00
2022-08-03T06:11:46.340Z,100.00
2022-08-03T06:14:15.671Z,100.00
2022-08-03T06:16:43.307Z,100.00
2022-08-03T06:19:11.059Z,100.00
2022-08-03T06:21:38.687Z,100.00
2022-08-03T06:24:08.226Z,100.00
2022-08-03T06:26:35.902Z,100.00
2022-08-03T06:29:04.036Z,100.00
2022-08-03T06:31:33.837Z,100.00
2022-08-03T06:34:33.510Z,100.00
2022-08-03T06:36:52.293Z,100.00
2022-08-03T06:39:20.681Z,100.00
2022-08-03T06:41:51.565Z,100.00
2022-08-03T06:44:19.314Z,100.00
2022-08-03T06:46:48.291Z,100.00
2022-08-03T06:49:16.133Z,100.00
2022-08-03T06:52:05.951Z,100.00
2022-08-03T06:54:33.189Z,100.00
2022-08-03T06:57:01.134Z,100.00
2022-08-03T07:00:08.953Z,100.00
2022-08-03T07:02:20.341Z,100.00
2022-08-03T07:04:48.643Z,100.00
2022-08-03T07:07:17.600Z,100.00
2022-08-03T07:09:57.629Z,100.00
2022-08-03T07:12:27.733Z,100.00
2022-08-03T07:15:00.404Z,100.00
2022-08-03T07:17:30.987Z,100.00
2022-08-03T07:19:58.968Z,100.00
2022-08-03T07:22:26.670Z,100.00
2022-08-03T07:24:54.335Z,100.00
2022-08-03T07:27:22.524Z,100.00
2022-08-03T07:29:50.185Z,100.00
2022-08-03T07:32:18.245Z,100.00
2022-08-03T07:34:47.417Z,100.00
2022-08-03T07:37:15.116Z,100.00
2022-08-03T07:39:42.771Z,100.00
2022-08-03T07:42:10.504Z,100.00
2022-08-03T07:44:39.323Z,100.00
2022-08-03T07:47:07.100Z,100.00
2022-08-03T07:49:40.772Z,96.18
2022-08-03T07:52:28.295Z,94.89
2022-08-03T07:54:56.325Z,98.48
2022-08-03T07:57:23.975Z,93.96
2022-08-03T08:00:01.873Z,96.96
2022-08-03T08:02:30.426Z,96.35
2022-08-03T08:05:01.075Z,91.72
2022-08-03T08:07:34.161Z,95.45
2022-08-03T08:10:01.816Z,95.87
2022-08-03T08:12:29.733Z,87.96
2022-08-03T08:14:57.435Z,87.43
2022-08-03T08:17:25.131Z,83.38
2022-08-03T08:19:53.575Z,86.63
2022-08-03T08:22:24.779Z,85.30
2022-08-03T08:25:01.051Z,91.54
2022-08-03T08:28:29.587Z,88.06
2022-08-03T08:30:19.574Z,85.38
2022-08-03T08:32:47.645Z,76.91
2022-08-03T08:35:15.679Z,86.26
2022-08-03T08:37:44.143Z,84.15
2022-08-03T08:40:22.098Z,73.08
2022-08-03T08:42:58.813Z,78.58
2022-08-03T08:45:27.472Z,76.29
2022-08-03T08:48:00.830Z,70.22
2022-08-03T08:50:30.513Z,76.10
2022-08-03T08:53:02.215Z,66.65
2022-08-03T08:55:58.715Z,67.79
2022-08-03T08:58:21.157Z,62.05
2022-08-03T09:00:49.370Z,60.47
2022-08-03T09:03:29.058Z,57.01
2022-08-03T09:06:00.322Z,54.70
2022-08-03T09:08:27.977Z,64.47
2022-08-03T09:10:56.956Z,66.09
2022-08-03T09:13:24.746Z,59.18
2022-08-03T09:16:10.713Z,56.75
2022-08-03T09:18:38.344Z,68.46
2022-08-03T09:21:36.024Z,74.16
2022-08-03T09:24:08.618Z,64.24
2022-08-03T09:26:52.233Z,72.32
2022-08-03T09:29:22.224Z,60.14
2022-08-03T09:31:49.874Z,67.94
2022-08-03T09:34:18.575Z,57.67
2022-08-03T09:36:47.785Z,59.20
2022-08-03T09:39:17.334Z,59.70
2022-08-03T09:41:47.207Z,62.63
2022-08-03T09:44:24.839Z,71.35
2022-08-03T09:46:55.550Z,56.25
2022-08-03T09:49:23.670Z,62.95
2022-08-03T09:52:30.076Z,62.52
2022-08-03T09:54:39.505Z,56.53
2022-08-03T09:57:08.621Z,53.75
2022-08-03T09:59:39.191Z,51.12
2022-08-03T10:02:21.805Z,56.86
2022-08-03T10:04:52.743Z,56.39
2022-08-03T10:07:21.851Z,53.63
2022-08-03T10:09:56.982Z,51.91
2022-08-03T10:12:26.552Z,53.70
2022-08-03T10:14:55.480Z,50.41
2022-08-03T10:17:24.297Z,53.91
2022-08-03T10:19:51.908Z,54.76
2022-08-03T10:22:23.131Z,50.11
2022-08-03T10:24:54.855Z,52.04
2022-08-03T10:27:24.061Z,52.96
2022-08-03T10:29:55.431Z,54.23
2022-08-03T10:32:27.665Z,59.20
2022-08-03T10:35:00.271Z,53.09
2022-08-03T10:37:33.964Z,53.85
2022-08-03T10:40:01.909Z,53.49
2022-08-03T10:42:31.691Z,54.83
2022-08-03T10:45:06.565Z,52.04
2022-08-03T10:47:35.873Z,48.54
2022-08-03T10:50:04.642Z,49.95
2022-08-03T10:52:38.233Z,55.19
2022-08-03T10:55:48.355Z,46.86
2022-08-03T10:58:30.486Z,51.75
2022-08-03T11:01:00.225Z,47.88
2022-08-03T11:03:27.963Z,50.85
2022-08-03T11:06:16.925Z,47.06
2022-08-03T11:08:44.578Z,50.58
2022-08-03T11:11:28.417Z,48.42
2022-08-03T11:14:00.758Z,44.08
2022-08-03T11:16:30.490Z,53.20
2022-08-03T11:19:00.393Z,41.32
2022-08-03T11:22:01.338Z,43.40
2022-08-03T11:25:53.447Z,45.12
2022-08-03T11:28:25.906Z,46.68
2022-08-03T11:30:54.592Z,53.17
2022-08-03T11:33:33.961Z,43.03
2022-08-03T11:36:03.052Z,41.04
2022-08-03T11:38:30.998Z,45.78
2022-08-03T11:40:58.663Z,51.31
2022-08-03T11:43:45.449Z,46.39
2022-08-03T11:46:29.759Z,52.81
2022-08-03T11:49:09.863Z,47.43
2022-08-03T11:51:39.856Z,45.69
2022-08-03T11:54:08.470Z,43.75
2022-08-03T11:56:45.728Z,43.13
2022-08-03T11:59:20.768Z,37.93
2022-08-03T12:01:49.182Z,41.95
2022-08-03T12:04:18.280Z,45.10
2022-08-03T12:07:00.290Z,44.12
2022-08-03T12:09:27.947Z,37.42
2022-08-03T12:11:59.719Z,42.79
2022-08-03T12:14:48.981Z,40.28
2022-08-03T12:17:17.371Z,35.42
2022-08-03T12:19:46.690Z,40.76
2022-08-03T12:22:16.003Z,41.59
2022-08-03T12:24:44.221Z,39.44
2022-08-03T12:27:14.247Z,38.93
2022-08-03T12:29:41.908Z,43.70
2022-08-03T12:32:09.637Z,38.71
2022-08-03T12:34:48.190Z,42.17
2022-08-03T12:37:22.685Z,37.79
2022-08-03T12:40:02.763Z,48.53
2022-08-03T12:42:35.700Z,35.45
2022-08-03T12:45:22.245Z,35.95
2022-08-03T12:47:54.495Z,42.81
2022-08-03T12:50:32.156Z,41.81
2022-08-03T12:53:01.246Z,31.73
2022-08-03T12:55:56.508Z,33.65
2022-08-03T12:58:33.507Z,32.50
2022-08-03T13:01:01.580Z,35.89
2022-08-03T13:03:42.805Z,34.25
2022-08-03T13:06:15.908Z,35.74
2022-08-03T13:08:45.608Z,33.92
2022-08-03T13:11:20.773Z,35.58
2022-08-03T13:13:48.478Z,38.93
2022-08-03T13:16:19.282Z,33.15
2022-08-03T13:18:48.037Z,38.62
2022-08-03T13:21:17.842Z,35.73
2022-08-03T13:23:46.203Z,39.07
2022-08-03T13:26:14.146Z,34.48
2022-08-03T13:28:41.863Z,40.68
2022-08-03T13:31:09.570Z,36.29
2022-08-03T13:33:37.331Z,33.78
2022-08-03T13:36:05.201Z,34.72
2022-08-03T13:38:34.270Z,32.92
2022-08-03T13:41:04.977Z,38.98
2022-08-03T13:43:32.976Z,37.64
2022-08-03T13:46:00.689Z,30.84
2022-08-03T13:48:36.721Z,33.88
2022-08-03T13:51:11.719Z,37.11
2022-08-03T13:53:52.287Z,33.06
2022-08-03T13:56:20.079Z,32.53
2022-08-03T13:58:47.731Z,34.68
2022-08-03T14:01:15.558Z,34.19
2022-08-03T14:03:43.305Z,35.09
2022-08-03T14:06:11.131Z,37.61
2022-08-03T14:08:38.804Z,35.56
2022-08-03T14:11:07.921Z,42.94
2022-08-03T14:13:35.696Z,42.90
2022-08-03T14:16:03.413Z,43.41
2022-08-03T14:18:33.716Z,38.20
2022-08-03T14:21:06.364Z,30.42
2022-08-03T14:23:37.935Z,34.18
2022-08-03T14:26:10.818Z,41.10
2022-08-03T14:28:39.665Z,36.62
2022-08-03T14:32:09.218Z,37.10
2022-08-03T14:33:57.456Z,35.07
2022-08-03T14:36:26.015Z,35.03
2022-08-03T14:38:56.115Z,36.69
2022-08-03T14:41:27.558Z,36.70
2022-08-03T14:44:02.000Z,31.92
2022-08-03T14:46:30.528Z,33.29
2022-08-03T14:50:33.784Z,31.48
2022-08-03T14:51:53.872Z,28.28
2022-08-03T14:54:22.193Z,24.55
2022-08-03T14:56:51.545Z,24.06
2022-08-03T14:59:19.488Z,19.86
2022-08-03T15:02:02.560Z,20.68
2022-08-03T15:04:31.615Z,25.33
2022-08-03T15:06:59.234Z,25.59
2022-08-03T15:09:26.893Z,24.80
2022-08-03T15:11:55.943Z,24.98
2022-08-03T15:14:28.459Z,25.18
2022-08-03T15:17:01.231Z,25.61
2022-08-03T15:20:03.139Z,28.04
2022-08-03T15:22:20.518Z,28.41
2022-08-03T15:24:52.472Z,28.91
2022-08-03T15:27:21.904Z,29.84
2022-08-03T15:30:05.231Z,29.84
2022-08-03T15:32:35.796Z,29.60
2022-08-03T15:35:03.703Z,32.82
2022-08-03T15:37:31.359Z,30.04
2022-08-03T15:40:00.990Z,34.93
2022-08-03T15:42:31.573Z,29.60
2022-08-03T15:44:59.445Z,34.70
2022-08-03T15:47:27.288Z,28.62
2022-08-03T15:49:54.947Z,32.02
2022-08-03T15:52:22.631Z,34.83
2022-08-03T15:54:50.593Z,31.79
2022-08-03T15:57:18.696Z,29.86
2022-08-03T15:59:48.105Z,32.92
2022-08-03T16:02:16.253Z,30.22
2022-08-03T16:04:43.925Z,31.95
2022-08-03T16:07:12.743Z,33.48
2022-08-03T16:09:43.482Z,40.00
2022-08-03T16:12:14.522Z,35.18
2022-08-03T16:14:52.346Z,33.40
2022-08-03T16:17:24.545Z,35.52
2022-08-03T16:19:55.106Z,37.37
2022-08-03T16:22:23.809Z,32.62
2022-08-03T16:24:51.667Z,37.32
2022-08-03T16:27:37.320Z,32.94
2022-08-03T16:30:09.410Z,34.37
2022-08-03T16:32:39.883Z,41.87
2022-08-03T16:35:08.626Z,32.56
2022-08-03T16:37:38.690Z,36.63
2022-08-03T16:40:19.371Z,35.78
2022-08-03T16:42:47.779Z,34.60
2022-08-03T16:45:15.602Z,38.43
2022-08-03T16:47:44.893Z,36.04
2022-08-03T16:50:19.713Z,32.53
2022-08-03T16:52:48.513Z,41.24
2022-08-03T16:55:42.954Z,36.08
2022-08-03T16:58:06.437Z,33.73
2022-08-03T17:00:41.631Z,35.07
2022-08-03T17:03:12.757Z,33.23
2022-08-03T17:05:49.862Z,41.11
2022-08-03T17:08:26.488Z,42.96
2022-08-03T17:10:55.778Z,41.98
2022-08-03T17:13:39.205Z,41.09
2022-08-03T17:16:10.000Z,38.99
2022-08-03T17:18:42.225Z,36.81
2022-08-03T17:21:16.803Z,41.51
2022-08-03T17:23:47.803Z,38.98
2022-08-03T17:26:21.500Z,35.17
2022-08-03T17:28:56.512Z,34.15
2022-08-03T17:31:31.420Z,42.38
2022-08-03T17:34:04.523Z,41.24
2022-08-03T17:37:02.711Z,40.01
2022-08-03T17:39:48.513Z,42.88
2022-08-03T17:42:29.332Z,33.75
2022-08-03T17:45:02.204Z,35.06
2022-08-03T17:47:42.180Z,43.85
2022-08-03T17:50:24.067Z,44.27
2022-08-03T17:52:59.565Z,80.40
2022-08-03T17:58:24.919Z,58.22
2022-08-03T18:01:58.285Z,63.22
2022-08-03T18:04:11.145Z,62.19
2022-08-03T18:06:56.315Z,68.61
2022-08-03T18:10:04.807Z,66.02
2022-08-03T18:12:19.133Z,66.57
2022-08-03T18:14:57.635Z,78.82
2022-08-03T18:17:55.427Z,73.60
2022-08-03T18:20:34.049Z,84.72
2022-08-03T18:23:10.827Z,57.29
2022-08-03T18:25:57.617Z,59.65
2022-08-03T18:28:27.373Z,61.39
2022-08-03T18:30:57.306Z,54.63
2022-08-03T18:34:16.977Z,63.78
2022-08-03T18:36:21.694Z,77.11
2022-08-03T18:38:59.322Z,65.20
2022-08-03T18:41:32.584Z,56.61
2022-08-03T18:44:08.944Z,64.76
2022-08-03T18:46:48.363Z,66.24
2022-08-03T18:49:25.812Z,65.72
2022-08-03T18:52:03.904Z,61.48
2022-08-03T18:54:51.768Z,63.86
2022-08-03T18:57:38.110Z,75.28
2022-08-03T19:00:12.434Z,79.75
2022-08-03T19:02:48.810Z,82.78
2022-08-03T19:05:21.400Z,69.77
2022-08-03T19:07:58.350Z,56.91
2022-08-03T19:10:32.436Z,65.21
2022-08-03T19:13:04.876Z,67.79
2022-08-03T19:15:41.508Z,72.71
2022-08-03T19:18:22.616Z,62.06
2022-08-03T19:20:54.727Z,68.07
2022-08-03T19:23:24.906Z,78.04
2022-08-03T19:25:54.430Z,60.42
2022-08-03T19:28:29.701Z,53.16
2022-08-03T19:30:58.334Z,58.31
2022-08-03T19:33:29.907Z,63.15
2022-08-03T19:35:58.472Z,68.71
2022-08-03T19:38:29.534Z,62.34
2022-08-03T19:41:03.025Z,63.66
2022-08-03T19:43:51.496Z,62.52
2022-08-03T19:46:22.631Z,61.32
2022-08-03T19:49:01.655Z,71.71
2022-08-03T19:52:00.686Z,61.72
2022-08-03T19:54:29.652Z,61.36
2022-08-03T19:57:01.970Z,58.96
2022-08-03T19:59:30.736Z,57.92
2022-08-03T20:01:58.596Z,61.72
2022-08-03T20:04:26.525Z,61.48
2022-08-03T20:06:57.085Z,64.13
2022-08-03T20:09:30.490Z,61.79
2022-08-03T20:11:58.938Z,60.59
2022-08-03T20:14:28.519Z,60.04
2022-08-03T20:16:57.297Z,60.07
2022-08-03T20:19:25.345Z,58.47
2022-08-03T20:22:00.762Z,67.89
2022-08-03T20:24:31.688Z,58.37
2022-08-03T20:27:01.604Z,66.43
2022-08-03T20:30:05.457Z,63.07
2022-08-03T20:32:24.742Z,61.26
2022-08-03T20:34:52.929Z,62.41
2022-08-03T20:37:21.020Z,66.20
2022-08-03T20:39:49.471Z,67.76
2022-08-03T20:42:19.243Z,64.06
2022-08-03T20:45:04.482Z,64.80
2022-08-03T20:47:35.928Z,67.63
2022-08-03T20:52:52.899Z,67.29
2022-08-03T20:55:48.283Z,61.94
2022-08-03T20:58:08.479Z,66.13
2022-08-03T21:00:37.726Z,64.47
2022-08-03T21:03:06.838Z,70.88
2022-08-03T21:05:51.513Z,69.62
2022-08-03T21:08:23.440Z,65.77
2022-08-03T21:10:52.463Z,62.62
2022-08-03T21:13:03.990Z,75.03
2022-08-03T21:13:13.088Z,73.56
2022-08-03T21:13:25.207Z,67.16
2022-08-03T21:16:12.410Z,66.53
2022-08-03T21:18:46.055Z,66.43
2022-08-03T21:21:16.583Z,65.80
2022-08-03T21:23:47.681Z,67.84
2022-08-03T21:26:17.689Z,69.31
2022-08-03T21:28:46.728Z,68.61
2022-08-03T21:31:24.442Z,71.02
2022-08-03T21:33:55.093Z,74.58
2022-08-03T21:36:22.993Z,75.19
2022-08-03T21:38:55.781Z,68.59
2022-08-03T21:41:24.903Z,74.62
2022-08-03T21:43:52.725Z,74.67
2022-08-03T21:46:23.694Z,77.04
2022-08-03T21:48:55.915Z,77.57
2022-08-03T21:51:26.369Z,84.42
2022-08-03T21:54:00.367Z,81.46
2022-08-03T21:56:37.368Z,75.86
2022-08-03T21:59:07.813Z,76.64
2022-08-03T22:01:38.092Z,73.38
2022-08-03T22:04:07.370Z,77.84
2022-08-03T22:06:39.943Z,74.26
2022-08-03T22:09:07.857Z,79.28
2022-08-03T22:11:36.043Z,80.24
2022-08-03T22:14:04.150Z,76.26
2022-08-03T22:16:32.193Z,83.40
2022-08-03T22:19:01.277Z,84.99
2022-08-03T22:21:36.394Z,78.17
2022-08-03T22:24:06.314Z,81.04
2022-08-03T22:26:35.672Z,81.29
2022-08-03T22:29:07.768Z,78.10
2022-08-03T22:31:58.484Z,82.51
2022-08-03T22:34:27.355Z,90.64
2022-08-03T22:37:00.416Z,73.44
2022-08-03T22:39:29.335Z,97.66
2022-08-03T22:41:57.993Z,87.51
2022-08-03T22:44:25.956Z,71.36
2022-08-03T22:46:53.673Z,69.18
2022-08-03T22:49:22.021Z,81.53
2022-08-03T22:51:51.879Z,73.10
2022-08-03T22:54:20.165Z,76.91
2022-08-03T22:56:48.177Z,69.77
2022-08-03T22:59:39.968Z,70.77
2022-08-03T23:02:20.021Z,70.19
2022-08-03T23:04:52.242Z,75.36
2022-08-03T23:07:27.485Z,71.74
2022-08-03T23:09:56.048Z,70.58
2022-08-03T23:12:24.664Z,74.11
2022-08-03T23:14:55.795Z,70.89
2022-08-03T23:17:24.303Z,73.86
2022-08-03T23:19:53.785Z,72.48
2022-08-03T23:22:30.464Z,75.09
2022-08-03T23:25:01.391Z,88.27
2022-08-03T23:27:29.119Z,84.77
2022-08-03T23:29:58.781Z,94.25
2022-08-03T23:32:27.276Z,75.28
2022-08-03T23:35:14.541Z,76.73
2022-08-03T23:38:04.388Z,77.40
2022-08-03T23:40:32.274Z,78.91
2022-08-03T23:43:00.679Z,84.34
2022-08-03T23:45:29.084Z,75.90
2022-08-03T23:47:56.827Z,78.84
2022-08-03T23:50:25.119Z,80.26
2022-08-03T23:53:01.465Z,91.10
2022-08-03T23:55:41.259Z,92.32
2022-08-03T23:58:16.328Z,80.53
